• Join FlightAware (Why Join?)
  • Login
  • US Flag 
01:26AM EDT


 

Airport Tracker/Info


-or-


 

Live Flight TrackerFlight Track Log ✈ UAL3776 ✈ 24-Oct-2013 ✈ KORD - KROC

Flight Track Log - Related Links

Times and Time Zones

All times are in EDT time to prevent confusion due to time zone crossing. See the UAL3776 flight status page for this flight to view local times or setup timezone preferences in your user account.

Time Position Orientation Groundspeed Altitude Reporting Facility
EDT Latitude Longitude Course Direction KTS MPH feet Rate Location/Type
02:33PM 42.0333 -87.9167 80° East 247 284 2,200  Level Chicago TRACON
02:34PM 42.0667 -87.8333 62° Northeast 260 299 5,600 3,000 Climbing Chicago TRACON
02:36PM 42.0824 -87.2577 90° East  Level Estimated
02:36PM 42.0917 -87.6403 80° East 280 322 11,100  Level Chicago Center
02:37PM 42.0912 -87.0922 86° East  Level FlightAware Approximate
02:37PM 42.0961 -87.5300 87° East 289 333 13,400  Level Chicago Center
02:38PM 42.1136 -86.9447 80° East  Level Estimated
02:38PM 42.1006 -87.4125 87° East 304 350 15,900  Level Chicago Center
02:39PM 42.1050 -87.2931 87° East 315 362 17,900 1,980 Climbing Chicago Center
02:40PM 42.1089 -87.1689 88° East 324 373 20,000 1,920 Climbing Chicago Center
02:41PM 42.1131 -87.0419 87° East 335 386 21,900 1,860 Climbing Chicago Center
02:42PM 42.1172 -86.8825 88° East 350 403 23,900 1,620 Climbing Chicago Center
02:43PM 42.1228 -86.7458 87° East 363 418 25,300 1,200 Climbing Chicago Center
02:44PM 42.1275 -86.5925 88° East 381 438 26,400 720 Climbing Chicago Center
02:45PM 42.1333 -86.4378 87° East 410 472 26,900 660 Climbing Chicago Center
02:46PM 42.1389 -86.2725 87° East 435 501 27,800 780 Climbing Chicago Center
02:47PM 42.1433 -86.1044 88° East 445 512 28,600 780 Climbing Chicago Center
02:48PM 42.1428 -85.9100 90° East 460 529 29,500 960 Climbing Chicago Center
02:49PM 42.1408 -85.7333 91° East 468 539 30,700 1,020 Climbing Chicago Center
02:50PM 42.1397 -85.5583 90° East 471 542 31,700 900 Climbing Chicago Center
02:51PM 42.1372 -85.3822 91° East 472 543 32,600 600 Climbing Chicago Center
02:52PM 42.1356 -85.2028 91° East 478 550 33,000 180 Climbing Chicago Center
02:53PM 42.1317 -84.9794 91° East 496 571 33,000  Level Chicago Center
02:54PM 42.1292 -84.7869 91° East 513 590 33,000 -60 Level Chicago Center
02:55PM 42.1286 -84.5950 90° East 515 593 32,900  Descending Chicago Center
02:56PM 42.1478 -84.4033 82° East 516 594 33,000  Climbing Chicago Center
02:57PM 42.1592 -84.2744 83° East 516 594 33,000  Level Cleveland Center
02:58PM 42.1744 -84.0814 84° East 519 597 33,000  Level Cleveland Center
02:59PM 42.1942 -83.8500 83° East 521 600 33,000  Level Cleveland Center
03:00PM 42.2100 -83.6578 84° East 521 600 33,000  Level Cleveland Center
03:01PM 42.2269 -83.4603 83° East 519 597 33,000  Level Cleveland Center
03:02PM 42.2411 -83.2650 84° East 520 598 33,000  Level Cleveland Center
03:03PM 42.2572 -83.0569 84° East 521 600 33,000  Level Cleveland Center
03:04PM 42.2717 -82.8656 84° East 517 595 33,000  Level Cleveland Center
03:05PM 42.2864 -82.6714 84° East 521 600 33,000  Level Cleveland Center
03:06PM 42.3006 -82.4772 84° East 521 600 33,000  Level Cleveland Center
03:07PM 42.3147 -82.2831 84° East 521 600 33,000 -780 Level Cleveland Center
03:09PM 42.3306 -82.0539 85° East 521 600 31,500 -1,500 Descending Cleveland Center
03:10PM 42.3436 -81.8619 85° East 511 588 29,900 -1,500 Descending Cleveland Center
03:11PM 42.3561 -81.6736 85° East 500 575 28,400 -1,440 Descending Cleveland Center
03:12PM 42.3681 -81.4936 85° East 481 554 27,000 -720 Descending Cleveland Center
03:13PM 42.3789 -81.3175 85° East 468 539 27,000  Level Cleveland Center
03:14PM 42.3897 -81.1394 85° East 469 540 27,000  Level Cleveland Center
03:15PM 42.4000 -80.9583 86° East 478 550 27,000  Level Cleveland Center
03:16PM 42.4128 -80.7444 85° East 483 556 27,000  Level Cleveland Center
03:17PM 42.4242 -80.5642 85° East 479 551 27,000  Level Cleveland Center
03:18PM 42.4631 -80.3867 73° East 492 566 27,000  Level Cleveland Center
03:19PM 42.5097 -80.2142 70° East 485 558 27,000  Level Cleveland Center
03:20PM 42.5561 -80.0403 70° East 486 559 27,000  Level Cleveland Center
03:21PM 42.6042 -79.8647 70° East 487 560 27,000  Level Cleveland Center
03:22PM 42.6525 -79.6931 69° East 488 562 27,000  Level Cleveland Center
03:23PM 42.7061 -79.4911 70° East 476 548 27,000 -60 Level Cleveland Center
03:24PM 42.7492 -79.3244 71° East 469 540 26,900 -1,020 Descending Cleveland Center
03:25PM 42.7800 -79.1550 76° East 466 536 24,900 -1,980 Descending Cleveland Center
03:26PM 42.7986 -78.9892 81° East 449 517 22,900 -1,980 Descending Cleveland Center
03:27PM 42.8233 -78.8339 78° East 420 483 20,900 -2,040 Descending Cleveland Center
03:28PM 42.8622 -78.6906 70° East 405 466 18,700 -2,340 Descending Cleveland Center
03:29PM 42.8947 -78.5678 70° East 398 458 16,800 -2,520 Descending Cleveland Center
03:29PM 42.9061 -78.5211 72° East 395 455 16,100 -2,160 Descending Cleveland Center
03:30PM 42.9211 -78.4622 71° East 388 447 15,300 -2,040 Descending Cleveland Center
03:30PM 42.9400 -78.3831 72° East 385 443 14,000 -2,220 Descending Cleveland Center
03:31PM 42.9567 -78.3244 69° East 375 432 13,100 -1,860 Descending Cleveland Center
03:31PM 42.9736 -78.2511 72° East 371 427 12,100 -1,560 Descending Cleveland Center
03:32PM 42.9828 -78.2189 69° East 349 402 11,700 -1,500 Descending Cleveland Center
03:32PM 43.0036 -78.1319 72° East 338 389 10,600 -1,440 Descending Cleveland Center
03:32PM 43.0100 -78.1075 70° East 318 366 10,400 -1,080 Descending Cleveland Center
03:33PM 43.0222 -78.0183 79° East 310 357 9,500 -1,140 Descending Cleveland Center
03:33PM 43.0219 -77.9950 91° East 297 342 9,300 -1,260 Descending Cleveland Center
03:34PM 43.0222 -77.9047 90° East 300 345 8,200 -1,320 Descending Cleveland Center
03:34PM 43.0239 -77.8797 85° East 296 341 8,000 -1,500 Descending Cleveland Center
03:36PM 43.0233 -77.7667 90° East 292 336 6,600 -1,140 Descending Cleveland Center
03:37PM 43.0236 -77.6597 90° East 267 307 5,800 -1,200 Descending Cleveland Center
03:38PM 43.0250 -77.5678 89° East 259 298 4,300 -1,500 Descending Cleveland Center
03:38PM 43.0264 -77.5650 56° Northeast 249 287 4,300 -1,560 Level Cleveland Center
03:39PM 43.0286 -77.4739 88° East 249 287 2,700 -900 Descending Cleveland Center
03:40PM 43.0781 -77.4411 26° Northeast 217 250 2,500 -240 Descending Cleveland Center
03:40PM 43.0889 -77.4394 North 180 207 2,500 -120 Level Cleveland Center
03:41PM 43.1211 -77.4558 340° North 189 217 2,400  Descending Cleveland Center
03:41PM 43.1278 -77.4642 318° Northwest 160 184 2,500 60 Climbing Cleveland Center
03:42PM 43.1281 -77.5222 270° West 162 186 2,500  Level Cleveland Center
03:42PM 43.1269 -77.5156 103° East 169 194 2,500 -840 Level Cleveland Center
03:43PM 43.1258 -77.5825 269° West 157 181 1,700 -900 Descending Cleveland Center
03:43PM 43.1236 -77.5878 240° Southwest 164 189 1,600 -840 Descending Cleveland Center
03:44PM 43.1233 -77.6308 270° West 125 144 900 -720 Descending Cleveland Center
03:44PM 43.1233 -77.6367 270° West 150 173 900 -360 Level Cleveland Center
03:45PM 43.1214 -77.6753 266° West 123 142 500 -420 Descending Cleveland Center